Map

Track Data

SID SEASON NUMBER BASIN SUBBASIN NAME ISO_TIME NATURE LAT LON WMO_WIND WMO_PRES WMO_AGENCY TRACK_TYPE DIST2LAND LANDFALL IFLAG USA_AGENCY USA_ATCF_ID USA_LAT USA_LON USA_RECORD USA_STATUS USA_WIND USA_PRES USA_SSHS USA_R34_NE USA_R34_SE USA_R34_SW USA_R34_NW USA_R50_NE USA_R50_SE USA_R50_SW USA_R50_NW USA_R64_NE USA_R64_SE USA_R64_SW USA_R64_NW USA_POCI USA_ROCI USA_RMW USA_EYE TOKYO_LAT TOKYO_LON TOKYO_GRADE TOKYO_WIND TOKYO_PRES TOKYO_R50_DIR TOKYO_R50_LONG TOKYO_R50_SHORT TOKYO_R30_DIR TOKYO_R30_LONG TOKYO_R30_SHORT TOKYO_LAND CMA_LAT CMA_LON CMA_CAT CMA_WIND CMA_PRES HKO_LAT HKO_LON HKO_CAT HKO_WIND HKO_PRES NEWDELHI_LAT NEWDELHI_LON NEWDELHI_GRADE NEWDELHI_WIND NEWDELHI_PRES NEWDELHI_CI NEWDELHI_DP NEWDELHI_POCI REUNION_LAT REUNION_LON REUNION_TYPE REUNION_WIND REUNION_PRES REUNION_TNUM REUNION_CI REUNION_RMW REUNION_R34_NE REUNION_R34_SE REUNION_R34_SW REUNION_R34_NW REUNION_R50_NE REUNION_R50_SE REUNION_R50_SW REUNION_R50_NW REUNION_R64_NE REUNION_R64_SE REUNION_R64_SW REUNION_R64_NW BOM_LAT BOM_LON BOM_TYPE BOM_WIND BOM_PRES BOM_TNUM BOM_CI BOM_RMW BOM_R34_NE BOM_R34_SE BOM_R34_SW BOM_R34_NW BOM_R50_NE BOM_R50_SE BOM_R50_SW BOM_R50_NW BOM_R64_NE BOM_R64_SE BOM_R64_SW BOM_R64_NW BOM_ROCI BOM_POCI BOM_EYE BOM_POS_METHOD BOM_PRES_METHOD NADI_LAT NADI_LON NADI_CAT NADI_WIND NADI_PRES WELLINGTON_LAT WELLINGTON_LON WELLINGTON_WIND WELLINGTON_PRES DS824_LAT DS824_LON DS824_STAGE DS824_WIND DS824_PRES TD9636_LAT TD9636_LON TD9636_STAGE TD9636_WIND TD9636_PRES TD9635_LAT TD9635_LON TD9635_WIND TD9635_PRES TD9635_ROCI NEUMANN_LAT NEUMANN_LON NEUMANN_CLASS NEUMANN_WIND NEUMANN_PRES MLC_LAT MLC_LON MLC_CLASS MLC_WIND MLC_PRES USA_GUST BOM_GUST BOM_GUST_PER REUNION_GUST REUNION_GUST_PER USA_SEAHGT USA_SEARAD_NE USA_SEARAD_SE USA_SEARAD_SW USA_SEARAD_NW STORM_SPEED STORM_DIR
1995091S11145 1995 17 SP EA NOT_NAMED 1995-04-01 00:00:00 TS -10.9000 144.500 main 183 132 O___________O_ jtwc_sh SH201995 -10.9000 144.500 15 -1 -10.9000 144.500 TC 15 11 271
1995091S11145 1995 17 SP EA NOT_NAMED 1995-04-01 03:00:00 TS -10.8877 143.950 main 122 69 P___________P_ SH201995 -10.8877 143.950 15 -1 -10.8877 143.950 TC 15 11 270
1995091S11145 1995 17 SP EA NOT_NAMED 1995-04-01 06:00:00 TS -10.9000 143.400 main 69 24 O___________O_ jtwc_sh SH201995 -10.9000 143.400 15 -1 -10.9000 143.400 TC 15 11 267
1995091S11145 1995 17 SP EA NOT_NAMED 1995-04-01 09:00:00 TS -10.9499 142.850 main 24 0 P___________P_ SH201995 -10.9499 142.850 15 -1 -10.9499 142.850 TC 15 11 265
1995091S11145 1995 17 SP EA NOT_NAMED 1995-04-01 12:00:00 TS -11.0000 142.300 main 0 0 O___________O_ jtwc_sh SH201995 -11.0000 142.300 15 -1 -11.0000 142.300 TC 15 11 267
1995091S11145 1995 17 SP EA NOT_NAMED 1995-04-01 15:00:00 TS -10.9999 141.750 main 43 43 P___________P_ SH201995 -10.9999 141.750 15 -1 -10.9999 141.750 TC 15 11 270
1995091S11145 1995 17 SP EA NOT_NAMED 1995-04-01 18:00:00 TS -11.0000 141.200 main 98 98 O___________O_ jtwc_sh SH201995 -11.0000 141.200 15 -1 -11.0000 141.200 TC 15 11 267
1995091S11145 1995 17 SP EA NOT_NAMED 1995-04-01 21:00:00 TS -11.0499 140.650 main 152 152 P___________P_ SH201995 -11.0499 140.650 17 -1 -11.0499 140.650 TC 17 11 265
1995091S11145 1995 17 SP EA NOT_NAMED 1995-04-02 00:00:00 TS -11.1000 140.100 main 213 213 O___________O_ jtwc_sh SH201995 -11.1000 140.100 20 -1 -11.1000 140.100 TC 20 11 267
1995091S11145 1995 17 SP EA NOT_NAMED 1995-04-02 03:00:00 TS -11.0999 139.542 main 269 256 P___________P_ SH201995 -11.0999 139.542 20 -1 -11.0999 139.542 TC 20 11 270
1995091S11145 1995 17 SP EA NOT_NAMED 1995-04-02 06:00:00 TS -11.1000 139.000 main 256 211 O___________O_ jtwc_sh SH201995 -11.1000 139.000 20 -1 -11.1000 139.000 TC 20 10 267
1995091S11145 1995 17 SP EA NOT_NAMED 1995-04-02 09:00:00 TS -11.1499 138.485 main 211 164 P___________P_ SH201995 -11.1499 138.485 20 -1 -11.1499 138.485 TC 20 10 264
1995091S11145 1995 17 SP EA NOT_NAMED 1995-04-02 12:00:00 TS -11.2000 138.000 main 164 139 O___________O_ jtwc_sh SH201995 -11.2000 138.000 20 -1 -11.2000 138.000 TC 20 9 267
1995091S11145 1995 17 SP EA NOT_NAMED 1995-04-02 15:00:00 TS -11.1999 137.542 main 134 110 P___________P_ SH201995 -11.1999 137.542 20 -1 -11.1999 137.542 TC 20 9 270
1995091S11145 1995 17 SP EA NOT_NAMED 1995-04-02 18:00:00 TS -11.2000 137.100 main 110 92 O___________O_ jtwc_sh SH201995 -11.2000 137.100 20 -1 -11.2000 137.100 TC 20 9 267
1995091S11145 1995 17 SP EA NOT_NAMED 1995-04-02 21:00:00 TS -11.2424 136.650 main 92 78 P___________P_ SH201995 -11.2424 136.650 22 -1 -11.2424 136.650 TC 22 9 264
1995091S11145 1995 17 SP EA NOT_NAMED 1995-04-03 00:00:00 TS -11.3000 136.200 main 84 84 O___________O_ jtwc_sh SH201995 -11.3000 136.200 25 -1 -11.3000 136.200 TC 25 9 263
1995091S11145 1995 17 SP EA NOT_NAMED 1995-04-03 03:00:00 TS -11.3499 135.757 main 89 78 P___________P_ SH201995 -11.3499 135.757 25 -1 -11.3499 135.757 TC 25 9 264
1995091S11145 1995 17 SP EA NOT_NAMED 1995-04-03 06:00:00 TS -11.4000 135.300 main 84 78 O___________O_ jtwc_sh SH201995 -11.4000 135.300 25 -1 -11.4000 135.300 TC 25 9 264
1995091S11145 1995 17 SI WA NOT_NAMED 1995-04-03 09:00:00 TS -11.4425 134.807 main 78 57 P___________P_ SH201995 -11.4425 134.807 25 -1 -11.4425 134.807 TC 25 10 264
1995091S11145 1995 17 SI WA NOT_NAMED 1995-04-03 12:00:00 TS -11.5000 134.300 main 57 22 O___________O_ jtwc_sh SH201995 -11.5000 134.300 25 -1 -11.5000 134.300 TC 25 10 261
1995091S11145 1995 17 SI WA NOT_NAMED 1995-04-03 15:00:00 TS -11.5924 133.808 main 22 10 P___________P_ SH201995 -11.5924 133.808 25 -1 -11.5924 133.808 TC 25 10 258
1995091S11145 1995 17 SI WA NOT_NAMED 1995-04-03 18:00:00 TS -11.7000 133.300 main 10 0 O___________O_ jtwc_sh SH201995 -11.7000 133.300 25 -1 -11.7000 133.300 TC 25 10 259
1995091S11145 1995 17 SI WA NOT_NAMED 1995-04-03 21:00:00 TS -11.7924 132.765 main 0 0 P___________P_ SH201995 -11.7924 132.765 25 -1 -11.7924 132.765 TC 25 11 259
1995091S11145 1995 17 SI WA NOT_NAMED 1995-04-04 00:00:00 TS -11.9000 132.200 main 40 33 O___________O_ jtwc_sh SH201995 -11.9000 132.200 25 -1 -11.9000 132.200 TC 25 12 258
1995091S11145 1995 17 SI WA NOT_NAMED 1995-04-04 03:00:00 TS -12.0424 131.607 main 33 0 P___________P_ SH201995 -12.0424 131.607 25 -1 -12.0424 131.607 TC 25 12 256
1995091S11145 1995 17 SI WA NOT_NAMED 1995-04-04 06:00:00 TS -12.2000 131.000 main 11 11 O___________O_ jtwc_sh SH201995 -12.2000 131.000 25 -1 -12.2000 131.000 TC 25 12 256
1995091S11145 1995 17 SI WA NOT_NAMED 1995-04-04 09:00:00 TS -12.3349 130.392 main 31 31 P___________P_ SH201995 -12.3349 130.392 25 -1 -12.3349 130.392 TC 25 12 256
1995091S11145 1995 17 SI WA NOT_NAMED 1995-04-04 12:00:00 TS -12.5000 129.800 main 64 64 O___________O_ jtwc_sh SH201995 -12.5000 129.800 25 -1 -12.5000 129.800 TC 25 12 251
1995091S11145 1995 17 SI WA NOT_NAMED 1995-04-04 15:00:00 TS -12.7349 129.235 main 103 100 P___________P_ SH201995 -12.7349 129.235 22 -1 -12.7349 129.235 TC 22 12 245
1995091S11145 1995 17 SI WA NOT_NAMED 1995-04-04 18:00:00 TS -13.0000 128.700 main 131 124 O___________O_ jtwc_sh SH201995 -13.0000 128.700 20 -1 -13.0000 128.700 TC 20 11 243
1995091S11145 1995 17 SI WA NOT_NAMED 1995-04-04 21:00:00 TS -13.2499 128.185 main 124 64 P___________P_ SH201995 -13.2499 128.185 20 -1 -13.2499 128.185 TC 20 11 243
1995091S11145 1995 17 SI WA NOT_NAMED 1995-04-05 00:00:00 TS -13.5000 127.700 main 64 24 O___________O_ jtwc_sh SH201995 -13.5000 127.700 20 -1 -13.5000 127.700 TC 20 11 242
1995091S11145 1995 17 SI WA NOT_NAMED 1995-04-05 03:00:00 TS -13.7350 127.227 main 15 0 P___________P_ SH201995 -13.7350 127.227 20 -1 -13.7350 127.227 TC 20 10 240
1995091S11145 1995 17 SI WA NOT_NAMED 1995-04-05 06:00:00 TS -14.0000 126.800 main 10 0 O___________O_ jtwc_sh SH201995 -14.0000 126.800 20 -1 -14.0000 126.800 TC 20 10 233
1995091S11145 1995 17 SI WA NOT_NAMED 1995-04-05 09:00:00 TS -14.3275 126.412 main 0 0 P___________P_ SH201995 -14.3275 126.412 20 -1 -14.3275 126.412 TC 20 10 224
1995091S11145 1995 17 SI WA NOT_NAMED 1995-04-05 12:00:00 TS -14.7000 126.100 main 0 0 O___________O_ jtwc_sh SH201995 -14.7000 126.100 20 -1 -14.7000 126.100 TC 20 9 214
1995091S11145 1995 17 SI WA NOT_NAMED 1995-04-05 15:00:00 TS -15.0924 125.870 main 0 0 P___________P_ SH201995 -15.0924 125.870 17 -1 -15.0924 125.870 TC 17 9 206
1995091S11145 1995 17 SI WA NOT_NAMED 1995-04-05 18:00:00 TS -15.5000 125.700 main 0 0 O___________O_ jtwc_sh SH201995 -15.5000 125.700 15 -1 -15.5000 125.700 TC 15 9 201
1995091S11145 1995 17 SI WA NOT_NAMED 1995-04-05 21:00:00 TS -15.9025 125.548 main 0 0 P___________P_ SH201995 -15.9025 125.548 15 -1 -15.9025 125.548 TC 15 9 200
1995091S11145 1995 17 SI WA NOT_NAMED 1995-04-06 00:00:00 TS -16.3000 125.400 main 0 O___________O_ jtwc_sh SH201995 -16.3000 125.400 15 -1 -16.3000 125.400 TC 15 8 200

Digital Typhoon Data and Search

About IBTrACS Database

This database is a web-friendly format of International Best Track Archive for Climate Stewardship (IBTrACS), a global best track data archive curated by NOAA dating back to 1842.

Updated: 2021-12-06